FlightSource - Aviation Photo Database

World Wide Airport Lookup


Search by ICAO
Or
Search by City

FlightSource.ca - Aviation Photo Database - Cachimbo Airport Information
Airport Identification
Name: Cachimbo Airport
ICAO: SBCC
IATA: ITB
Airport Location
City: Novo Progresso
Region: PA
Country: Brazil
Continent: South America
Latitude: -9.33394
Longitude: -54.9654
Airport Information
Type: Medium Airport
Elevation: 1762 Feet ASL
Flight Status: SBCC
More Info: SBCC
Airport Weather    
Metar: SBCC 221500Z 20003KT 9999 BKN035 29/20 Q1013
TAF:


Advertisement